sensor_id;sensor_type;location;lat;lon;timestamp;pressure;altitude;pressure_sealevel;temperature;humidity
32081;BME280;18593;51.426;7.030;2023-06-14T00:00:11;100350.81;;;20.37;40.78
32081;BME280;18593;51.426;7.030;2023-06-14T00:02:42;100356.53;;;20.35;41.04
32081;BME280;18593;51.426;7.030;2023-06-14T00:05:09;100362.19;;;20.33;40.91
32081;BME280;18593;51.426;7.030;2023-06-14T00:07:40;100356.25;;;20.31;41.38
32081;BME280;18593;51.426;7.030;2023-06-14T00:10:11;100353.28;;;20.28;41.33
32081;BME280;18593;51.426;7.030;2023-06-14T00:12:38;100357.38;;;20.25;41.19
32081;BME280;18593;51.426;7.030;2023-06-14T00:15:07;100367.66;;;20.23;41.69
32081;BME280;18593;51.426;7.030;2023-06-14T00:17:36;100367.41;;;20.20;41.37
32081;BME280;18593;51.426;7.030;2023-06-14T00:20:06;100365.28;;;20.17;41.48
32081;BME280;18593;51.426;7.030;2023-06-14T00:22:39;100373.94;;;20.14;41.99
32081;BME280;18593;51.426;7.030;2023-06-14T00:25:07;100371.81;;;20.11;41.63
32081;BME280;18593;51.426;7.030;2023-06-14T00:27:37;100373.97;;;20.09;42.15
32081;BME280;18593;51.426;7.030;2023-06-14T00:30:06;100377.22;;;20.05;42.29
32081;BME280;18593;51.426;7.030;2023-06-14T00:32:33;100379.69;;;20.02;42.26
32081;BME280;18593;51.426;7.030;2023-06-14T00:35:01;100386.72;;;19.98;42.37
32081;BME280;18593;51.426;7.030;2023-06-14T00:37:29;100382.66;;;19.95;42.31
32081;BME280;18593;51.426;7.030;2023-06-14T00:39:57;100386.47;;;19.94;42.15
32081;BME280;18593;51.426;7.030;2023-06-14T00:42:28;100385.94;;;19.92;42.52
32081;BME280;18593;51.426;7.030;2023-06-14T00:44:55;100390.81;;;19.90;42.50
32081;BME280;18593;51.426;7.030;2023-06-14T00:47:24;100382.16;;;19.88;42.45
32081;BME280;18593;51.426;7.030;2023-06-14T00:49:51;100377.84;;;19.87;42.78
32081;BME280;18593;51.426;7.030;2023-06-14T00:52:21;100391.63;;;19.86;42.68
32081;BME280;18593;51.426;7.030;2023-06-14T00:54:51;100392.44;;;19.86;41.96
32081;BME280;18593;51.426;7.030;2023-06-14T00:57:19;100387.00;;;19.86;42.33
32081;BME280;18593;51.426;7.030;2023-06-14T00:59:48;100397.84;;;19.86;42.39
32081;BME280;18593;51.426;7.030;2023-06-14T01:02:17;100396.50;;;19.89;42.44
32081;BME280;18593;51.426;7.030;2023-06-14T01:04:49;100405.44;;;19.89;42.26
32081;BME280;18593;51.426;7.030;2023-06-14T01:07:40;100391.88;;;19.89;42.51
32081;BME280;18593;51.426;7.030;2023-06-14T01:10:27;100394.31;;;19.91;42.20
32081;BME280;18593;51.426;7.030;2023-06-14T01:13:10;100401.09;;;19.93;41.94
32081;BME280;18593;51.426;7.030;2023-06-14T01:15:44;100398.91;;;19.95;42.16
32081;BME280;18593;51.426;7.030;2023-06-14T01:18:11;100401.63;;;19.95;41.86
32081;BME280;18593;51.426;7.030;2023-06-14T01:20:44;100403.50;;;19.95;41.95
32081;BME280;18593;51.426;7.030;2023-06-14T01:23:16;100405.41;;;19.94;41.68
32081;BME280;18593;51.426;7.030;2023-06-14T01:25:44;100408.94;;;19.95;42.06
32081;BME280;18593;51.426;7.030;2023-06-14T01:28:14;100403.78;;;19.93;42.00
32081;BME280;18593;51.426;7.030;2023-06-14T01:30:45;100402.19;;;19.92;42.24
32081;BME280;18593;51.426;7.030;2023-06-14T01:33:23;100402.44;;;19.91;42.35
32081;BME280;18593;51.426;7.030;2023-06-14T01:35:53;100404.34;;;19.90;42.01
32081;BME280;18593;51.426;7.030;2023-06-14T01:38:25;100403.00;;;19.88;42.25
32081;BME280;18593;51.426;7.030;2023-06-14T01:40:56;100396.22;;;19.85;42.61
32081;BME280;18593;51.426;7.030;2023-06-14T01:43:25;100395.16;;;19.81;42.40
32081;BME280;18593;51.426;7.030;2023-06-14T01:45:54;100391.63;;;19.80;42.50
32081;BME280;18593;51.426;7.030;2023-06-14T01:48:22;100393.53;;;19.80;42.75
32081;BME280;18593;51.426;7.030;2023-06-14T01:50:50;100390.59;;;19.76;42.68
32081;BME280;18593;51.426;7.030;2023-06-14T01:53:20;100400.84;;;19.74;42.71
32081;BME280;18593;51.426;7.030;2023-06-14T01:55:48;100404.94;;;19.72;42.46
32081;BME280;18593;51.426;7.030;2023-06-14T01:58:16;100405.19;;;19.70;42.67
32081;BME280;18593;51.426;7.030;2023-06-14T02:00:47;100405.19;;;19.70;42.24
32081;BME280;18593;51.426;7.030;2023-06-14T02:03:14;100406.28;;;19.69;42.23
32081;BME280;18593;51.426;7.030;2023-06-14T02:05:42;100401.97;;;19.68;42.53
32081;BME280;18593;51.426;7.030;2023-06-14T02:08:09;100399.53;;;19.67;42.18
32081;BME280;18593;51.426;7.030;2023-06-14T02:10:37;100398.47;;;19.63;42.18
32081;BME280;18593;51.426;7.030;2023-06-14T02:13:07;100396.00;;;19.61;42.45
32081;BME280;18593;51.426;7.030;2023-06-14T02:15:35;100401.13;;;19.58;42.45
32081;BME280;18593;51.426;7.030;2023-06-14T02:18:03;100401.38;;;19.56;42.96
32081;BME280;18593;51.426;7.030;2023-06-14T02:20:32;100405.47;;;19.53;42.63
32081;BME280;18593;51.426;7.030;2023-06-14T02:23:02;100400.59;;;19.50;42.92
32081;BME280;18593;51.426;7.030;2023-06-14T02:25:31;100403.56;;;19.49;42.90
32081;BME280;18593;51.426;7.030;2023-06-14T02:27:58;100411.69;;;19.49;42.92
32081;BME280;18593;51.426;7.030;2023-06-14T02:30:27;100405.72;;;19.47;43.46
32081;BME280;18593;51.426;7.030;2023-06-14T02:32:56;100404.91;;;19.46;43.39
32081;BME280;18593;51.426;7.030;2023-06-14T02:35:25;100402.78;;;19.43;43.64
32081;BME280;18593;51.426;7.030;2023-06-14T02:37:55;100400.59;;;19.40;43.59
32081;BME280;18593;51.426;7.030;2023-06-14T02:40:22;100404.38;;;19.39;43.13
32081;BME280;18593;51.426;7.030;2023-06-14T02:42:50;100413.03;;;19.36;43.06
32081;BME280;18593;51.426;7.030;2023-06-14T02:45:17;100408.72;;;19.35;43.07
32081;BME280;18593;51.426;7.030;2023-06-14T02:47:46;100409.81;;;19.34;43.27
32081;BME280;18593;51.426;7.030;2023-06-14T02:50:16;100410.91;;;19.33;42.84
32081;BME280;18593;51.426;7.030;2023-06-14T02:52:43;100407.63;;;19.31;43.01
32081;BME280;18593;51.426;7.030;2023-06-14T02:55:11;100420.06;;;19.32;42.79
32081;BME280;18593;51.426;7.030;2023-06-14T02:57:40;100423.06;;;19.30;42.86
32081;BME280;18593;51.426;7.030;2023-06-14T03:00:10;100422.53;;;19.28;43.16
32081;BME280;18593;51.426;7.030;2023-06-14T03:02:41;100422.25;;;19.25;43.55
32081;BME280;18593;51.426;7.030;2023-06-14T03:05:14;100429.25;;;19.21;43.71
32081;BME280;18593;51.426;7.030;2023-06-14T03:07:43;100430.88;;;19.17;43.63
32081;BME280;18593;51.426;7.030;2023-06-14T03:10:14;100436.03;;;19.13;44.04
32081;BME280;18593;51.426;7.030;2023-06-14T03:12:43;100431.44;;;19.09;43.91
32081;BME280;18593;51.426;7.030;2023-06-14T03:15:16;100434.38;;;19.07;43.97
32081;BME280;18593;51.426;7.030;2023-06-14T03:17:46;100436.56;;;19.05;44.33
32081;BME280;18593;51.426;7.030;2023-06-14T03:20:17;100446.00;;;19.02;44.25
32081;BME280;18593;51.426;7.030;2023-06-14T03:22:46;100437.06;;;18.97;44.16
32081;BME280;18593;51.426;7.030;2023-06-14T03:25:14;100452.19;;;18.93;44.42
32081;BME280;18593;51.426;7.030;2023-06-14T03:27:44;100450.84;;;18.90;44.29
32081;BME280;18593;51.426;7.030;2023-06-14T03:30:12;100454.88;;;18.88;44.60
32081;BME280;18593;51.426;7.030;2023-06-14T03:32:42;100453.53;;;18.85;44.53
32081;BME280;18593;51.426;7.030;2023-06-14T03:35:11;100456.50;;;18.84;44.85
32081;BME280;18593;51.426;7.030;2023-06-14T03:37:44;100458.94;;;18.80;45.05
32081;BME280;18593;51.426;7.030;2023-06-14T03:40:14;100459.44;;;18.77;45.22
32081;BME280;18593;51.426;7.030;2023-06-14T03:42:44;100460.53;;;18.76;45.37
32081;BME280;18593;51.426;7.030;2023-06-14T03:45:12;100462.94;;;18.72;45.20
32081;BME280;18593;51.426;7.030;2023-06-14T03:47:39;100464.31;;;18.70;45.34
32081;BME280;18593;51.426;7.030;2023-06-14T03:50:07;100470.19;;;18.67;45.30
32081;BME280;18593;51.426;7.030;2023-06-14T03:52:35;100471.28;;;18.66;45.68
32081;BME280;18593;51.426;7.030;2023-06-14T03:55:06;100469.66;;;18.65;45.37
32081;BME280;18593;51.426;7.030;2023-06-14T03:57:34;100481.53;;;18.64;45.63
32081;BME280;18593;51.426;7.030;2023-06-14T04:00:03;100483.97;;;18.65;45.31
32081;BME280;18593;51.426;7.030;2023-06-14T04:02:40;100489.91;;;18.67;45.59
32081;BME280;18593;51.426;7.030;2023-06-14T04:05:09;100487.22;;;18.67;45.73
32081;BME280;18593;51.426;7.030;2023-06-14T04:07:42;100495.09;;;18.69;46.14
32081;BME280;18593;51.426;7.030;2023-06-14T04:10:12;100496.13;;;18.68;45.39
32081;BME280;18593;51.426;7.030;2023-06-14T04:12:40;100500.25;;;18.70;45.34
32081;BME280;18593;51.426;7.030;2023-06-14T04:15:09;100498.88;;;18.73;45.40
32081;BME280;18593;51.426;7.030;2023-06-14T04:17:37;100501.59;;;18.73;44.71
32081;BME280;18593;51.426;7.030;2023-06-14T04:20:07;100511.59;;;18.72;44.61
32081;BME280;18593;51.426;7.030;2023-06-14T04:22:35;100508.09;;;18.77;44.54
32081;BME280;18593;51.426;7.030;2023-06-14T04:25:05;100501.38;;;18.85;44.69
32081;BME280;18593;51.426;7.030;2023-06-14T04:27:34;100509.22;;;18.91;44.10
32081;BME280;18593;51.426;7.030;2023-06-14T04:30:05;100512.50;;;18.98;44.14
32081;BME280;18593;51.426;7.030;2023-06-14T04:32:37;100511.97;;;19.07;44.00
32081;BME280;18593;51.426;7.030;2023-06-14T04:35:08;100513.59;;;19.18;43.77
32081;BME280;18593;51.426;7.030;2023-06-14T04:37:38;100518.25;;;19.33;43.68
32081;BME280;18593;51.426;7.030;2023-06-14T04:40:10;100514.75;;;19.47;43.67
32081;BME280;18593;51.426;7.030;2023-06-14T04:42:39;100507.50;;;19.63;42.90
32081;BME280;18593;51.426;7.030;2023-06-14T04:45:11;100524.25;;;19.80;42.84
32081;BME280;18593;51.426;7.030;2023-06-14T04:47:39;100527.78;;;19.96;41.76
32081;BME280;18593;51.426;7.030;2023-06-14T04:50:09;100524.78;;;20.13;41.79
32081;BME280;18593;51.426;7.030;2023-06-14T04:52:39;100528.00;;;20.30;41.54
32081;BME280;18593;51.426;7.030;2023-06-14T04:55:09;100528.53;;;20.48;41.26
32081;BME280;18593;51.426;7.030;2023-06-14T04:57:38;100530.94;;;20.60;40.67
32081;BME280;18593;51.426;7.030;2023-06-14T05:00:09;100526.28;;;20.75;40.31
32081;BME280;18593;51.426;7.030;2023-06-14T05:02:39;100530.00;;;20.90;39.93
32081;BME280;18593;51.426;7.030;2023-06-14T05:05:07;100533.75;;;20.99;40.28
32081;BME280;18593;51.426;7.030;2023-06-14T05:07:35;100528.00;;;21.11;39.54
32081;BME280;18593;51.426;7.030;2023-06-14T05:10:03;100520.59;;;21.21;39.00
32081;BME280;18593;51.426;7.030;2023-06-14T05:12:31;100536.84;;;21.31;39.63
32081;BME280;18593;51.426;7.030;2023-06-14T05:14:59;100527.00;;;21.41;39.04
32081;BME280;18593;51.426;7.030;2023-06-14T05:17:27;100532.66;;;21.49;39.29
32081;BME280;18593;51.426;7.030;2023-06-14T05:19:54;100528.25;;;21.58;39.17
32081;BME280;18593;51.426;7.030;2023-06-14T05:22:22;100541.75;;;21.69;38.73
32081;BME280;18593;51.426;7.030;2023-06-14T05:24:50;100532.47;;;21.75;38.00
32081;BME280;18593;51.426;7.030;2023-06-14T05:27:17;100531.84;;;21.83;37.80
32081;BME280;18593;51.426;7.030;2023-06-14T05:29:44;100535.63;;;21.87;37.00
32081;BME280;18593;51.426;7.030;2023-06-14T05:32:13;100539.09;;;21.93;37.40
32081;BME280;18593;51.426;7.030;2023-06-14T05:34:40;100536.59;;;22.01;36.79
32081;BME280;18593;51.426;7.030;2023-06-14T05:37:08;100538.66;;;22.09;36.69
32081;BME280;18593;51.426;7.030;2023-06-14T05:39:35;100537.59;;;22.16;36.68
32081;BME280;18593;51.426;7.030;2023-06-14T05:42:02;100546.69;;;22.25;36.99
32081;BME280;18593;51.426;7.030;2023-06-14T05:44:29;100539.53;;;22.34;37.01
32081;BME280;18593;51.426;7.030;2023-06-14T05:46:57;100535.69;;;22.40;36.29
32081;BME280;18593;51.426;7.030;2023-06-14T05:49:25;100544.00;;;22.49;36.18
32081;BME280;18593;51.426;7.030;2023-06-14T05:51:52;100561.03;;;22.59;36.11
32081;BME280;18593;51.426;7.030;2023-06-14T05:54:19;100556.56;;;22.69;35.57
32081;BME280;18593;51.426;7.030;2023-06-14T05:56:47;100557.03;;;22.76;35.07
32081;BME280;18593;51.426;7.030;2023-06-14T05:59:14;100562.41;;;22.81;34.97
32081;BME280;18593;51.426;7.030;2023-06-14T06:01:41;100562.63;;;22.90;34.28
32081;BME280;18593;51.426;7.030;2023-06-14T06:04:09;100564.47;;;22.94;33.84
32081;BME280;18593;51.426;7.030;2023-06-14T06:06:38;100568.19;;;22.98;33.77
32081;BME280;18593;51.426;7.030;2023-06-14T06:09:05;100569.47;;;23.06;34.24
32081;BME280;18593;51.426;7.030;2023-06-14T06:11:33;100566.09;;;23.14;34.45
32081;BME280;18593;51.426;7.030;2023-06-14T06:14:00;100562.72;;;23.22;34.82
32081;BME280;18593;51.426;7.030;2023-06-14T06:16:27;100566.13;;;23.33;34.97
32081;BME280;18593;51.426;7.030;2023-06-14T06:18:54;100567.66;;;23.39;34.18
32081;BME280;18593;51.426;7.030;2023-06-14T06:21:22;100568.97;;;23.42;34.14
32081;BME280;18593;51.426;7.030;2023-06-14T06:23:50;100573.84;;;23.45;34.06
32081;BME280;18593;51.426;7.030;2023-06-14T06:26:17;100573.44;;;23.51;34.64
32081;BME280;18593;51.426;7.030;2023-06-14T06:28:45;100579.34;;;23.58;33.99
32081;BME280;18593;51.426;7.030;2023-06-14T06:31:12;100572.22;;;23.62;32.92
32081;BME280;18593;51.426;7.030;2023-06-14T06:33:39;100568.09;;;23.65;32.84
32081;BME280;18593;51.426;7.030;2023-06-14T06:36:06;100575.63;;;23.73;33.42
32081;BME280;18593;51.426;7.030;2023-06-14T06:38:34;100575.84;;;23.77;32.97
32081;BME280;18593;51.426;7.030;2023-06-14T06:41:02;100575.53;;;23.78;32.65
32081;BME280;18593;51.426;7.030;2023-06-14T06:43:30;100580.69;;;23.80;32.40
32081;BME280;18593;51.426;7.030;2023-06-14T06:45:57;100580.31;;;23.86;32.10
32081;BME280;18593;51.426;7.030;2023-06-14T06:48:25;100582.66;;;23.93;32.56
32081;BME280;18593;51.426;7.030;2023-06-14T06:50:52;100589.13;;;23.97;31.37
32081;BME280;18593;51.426;7.030;2023-06-14T06:53:19;100592.03;;;24.01;32.07
32081;BME280;18593;51.426;7.030;2023-06-14T06:55:46;100588.34;;;24.10;33.01
32081;BME280;18593;51.426;7.030;2023-06-14T06:58:15;100598.34;;;24.15;32.04
32081;BME280;18593;51.426;7.030;2023-06-14T07:00:42;100597.25;;;24.16;31.67
32081;BME280;18593;51.426;7.030;2023-06-14T07:03:09;100593.41;;;24.17;32.06
32081;BME280;18593;51.426;7.030;2023-06-14T07:05:37;100603.63;;;24.25;32.14
32081;BME280;18593;51.426;7.030;2023-06-14T07:08:05;100601.09;;;24.29;31.46
32081;BME280;18593;51.426;7.030;2023-06-14T07:10:32;100598.91;;;24.31;31.37
32081;BME280;18593;51.426;7.030;2023-06-14T07:12:59;100607.88;;;24.31;30.93
32081;BME280;18593;51.426;7.030;2023-06-14T07:15:28;100609.38;;;24.24;30.84
32081;BME280;18593;51.426;7.030;2023-06-14T07:17:55;100600.41;;;24.23;31.05
32081;BME280;18593;51.426;7.030;2023-06-14T07:20:25;100604.94;;;24.28;31.49
32081;BME280;18593;51.426;7.030;2023-06-14T07:22:52;100604.34;;;24.31;31.00
32081;BME280;18593;51.426;7.030;2023-06-14T07:25:20;100608.16;;;24.30;30.94
32081;BME280;18593;51.426;7.030;2023-06-14T07:27:48;100609.91;;;24.26;31.03
32081;BME280;18593;51.426;7.030;2023-06-14T07:30:15;100605.75;;;24.28;30.96
32081;BME280;18593;51.426;7.030;2023-06-14T07:32:44;100609.19;;;24.34;30.79
32081;BME280;18593;51.426;7.030;2023-06-14T07:35:11;100606.72;;;24.37;31.21
32081;BME280;18593;51.426;7.030;2023-06-14T07:37:38;100611.63;;;24.35;30.78
32081;BME280;18593;51.426;7.030;2023-06-14T07:40:07;100598.53;;;24.37;30.80
32081;BME280;18593;51.426;7.030;2023-06-14T07:42:36;100602.38;;;24.36;30.36
32081;BME280;18593;51.426;7.030;2023-06-14T07:45:05;100601.81;;;24.34;30.41
32081;BME280;18593;51.426;7.030;2023-06-14T07:47:32;100608.16;;;24.30;30.32
32081;BME280;18593;51.426;7.030;2023-06-14T07:50:01;100613.13;;;24.28;30.27
32081;BME280;18593;51.426;7.030;2023-06-14T07:52:28;100607.38;;;24.29;30.80
32081;BME280;18593;51.426;7.030;2023-06-14T07:54:56;100610.91;;;24.30;30.89
32081;BME280;18593;51.426;7.030;2023-06-14T07:57:24;100609.59;;;24.27;31.44
32081;BME280;18593;51.426;7.030;2023-06-14T07:59:51;100617.47;;;24.29;30.96
32081;BME280;18593;51.426;7.030;2023-06-14T08:02:18;100606.56;;;24.29;31.09
32081;BME280;18593;51.426;7.030;2023-06-14T08:04:45;100607.09;;;24.31;31.58
32081;BME280;18593;51.426;7.030;2023-06-14T08:07:15;100606.47;;;24.34;31.19
32081;BME280;18593;51.426;7.030;2023-06-14T08:09:42;100616.97;;;24.27;30.65
32081;BME280;18593;51.426;7.030;2023-06-14T08:12:10;100629.25;;;24.24;31.12
32081;BME280;18593;51.426;7.030;2023-06-14T08:14:39;100624.63;;;24.25;30.70
32081;BME280;18593;51.426;7.030;2023-06-14T08:17:06;100643.19;;;24.23;30.53
32081;BME280;18593;51.426;7.030;2023-06-14T08:19:33;100630.94;;;24.06;30.55
32081;BME280;18593;51.426;7.030;2023-06-14T08:22:03;100631.75;;;24.07;31.04
32081;BME280;18593;51.426;7.030;2023-06-14T08:24:32;100627.19;;;24.02;30.93
32081;BME280;18593;51.426;7.030;2023-06-14T08:26:59;100631.03;;;24.01;31.06
32081;BME280;18593;51.426;7.030;2023-06-14T08:29:27;100630.56;;;23.94;31.08
32081;BME280;18593;51.426;7.030;2023-06-14T08:31:56;100617.25;;;23.93;31.16
32081;BME280;18593;51.426;7.030;2023-06-14T08:34:24;100620.47;;;23.95;30.94
32081;BME280;18593;51.426;7.030;2023-06-14T08:36:51;100633.00;;;23.96;32.14
32081;BME280;18593;51.426;7.030;2023-06-14T08:39:18;100623.50;;;23.93;30.37
32081;BME280;18593;51.426;7.030;2023-06-14T08:41:48;100647.00;;;23.89;31.00
32081;BME280;18593;51.426;7.030;2023-06-14T08:44:15;100631.78;;;23.88;30.95
32081;BME280;18593;51.426;7.030;2023-06-14T08:46:43;100626.69;;;23.81;30.57
32081;BME280;18593;51.426;7.030;2023-06-14T08:49:12;100638.53;;;23.72;30.56
32081;BME280;18593;51.426;7.030;2023-06-14T08:51:40;100635.31;;;23.70;30.20
32081;BME280;18593;51.426;7.030;2023-06-14T08:54:08;100639.75;;;23.60;30.36
32081;BME280;18593;51.426;7.030;2023-06-14T08:56:38;100643.91;;;23.58;30.32
32081;BME280;18593;51.426;7.030;2023-06-14T08:59:09;100623.56;;;23.50;30.67
32081;BME280;18593;51.426;7.030;2023-06-14T09:01:37;100630.34;;;23.53;30.89
32081;BME280;18593;51.426;7.030;2023-06-14T09:04:05;100634.75;;;23.49;30.51
32081;BME280;18593;51.426;7.030;2023-06-14T09:06:32;100626.88;;;23.47;30.74
32081;BME280;18593;51.426;7.030;2023-06-14T09:09:00;100624.16;;;23.47;31.49
32081;BME280;18593;51.426;7.030;2023-06-14T09:11:28;100621.88;;;23.54;31.49
32081;BME280;18593;51.426;7.030;2023-06-14T09:13:58;100621.00;;;23.59;31.38
32081;BME280;18593;51.426;7.030;2023-06-14T09:16:27;100626.09;;;23.66;31.14
32081;BME280;18593;51.426;7.030;2023-06-14T09:18:54;100625.22;;;23.70;30.57
32081;BME280;18593;51.426;7.030;2023-06-14T09:21:22;100628.75;;;23.71;30.13
32081;BME280;18593;51.426;7.030;2023-06-14T09:23:49;100625.00;;;23.67;30.01
32081;BME280;18593;51.426;7.030;2023-06-14T09:26:18;100636.19;;;23.65;30.00
32081;BME280;18593;51.426;7.030;2023-06-14T09:28:47;100621.59;;;23.56;29.75
32081;BME280;18593;51.426;7.030;2023-06-14T09:31:17;100617.25;;;23.55;30.28
32081;BME280;18593;51.426;7.030;2023-06-14T09:33:47;100632.28;;;23.52;30.90
32081;BME280;18593;51.426;7.030;2023-06-14T09:36:17;100633.34;;;23.51;32.41
32081;BME280;18593;51.426;7.030;2023-06-14T09:38:52;100635.03;;;23.47;30.57
32081;BME280;18593;51.426;7.030;2023-06-14T09:41:19;100632.91;;;23.44;30.36
32081;BME280;18593;51.426;7.030;2023-06-14T09:43:47;100642.69;;;23.45;30.51
32081;BME280;18593;51.426;7.030;2023-06-14T09:46:32;100632.13;;;23.44;30.34
32081;BME280;18593;51.426;7.030;2023-06-14T09:49:03;100631.31;;;23.43;30.95
32081;BME280;18593;51.426;7.030;2023-06-14T09:51:31;100629.31;;;23.49;30.59
32081;BME280;18593;51.426;7.030;2023-06-14T09:54:00;100643.16;;;23.52;29.92
32081;BME280;18593;51.426;7.030;2023-06-14T09:56:29;100633.97;;;23.48;29.96
32081;BME280;18593;51.426;7.030;2023-06-14T09:58:58;100637.19;;;23.50;30.27
32081;BME280;18593;51.426;7.030;2023-06-14T10:01:27;100631.75;;;23.50;30.37
32081;BME280;18593;51.426;7.030;2023-06-14T10:04:03;100644.84;;;23.48;31.61
32081;BME280;18593;51.426;7.030;2023-06-14T10:06:32;100633.66;;;23.50;30.64
32081;BME280;18593;51.426;7.030;2023-06-14T10:09:04;100639.91;;;23.50;30.81
32081;BME280;18593;51.426;7.030;2023-06-14T10:11:35;100639.34;;;23.53;30.37
32081;BME280;18593;51.426;7.030;2023-06-14T10:14:05;100630.63;;;23.51;30.56
32081;BME280;18593;51.426;7.030;2023-06-14T10:16:37;100634.47;;;23.50;31.14
32081;BME280;18593;51.426;7.030;2023-06-14T10:19:18;100639.34;;;23.53;30.72
32081;BME280;18593;51.426;7.030;2023-06-14T10:21:51;100630.94;;;23.50;30.50
32081;BME280;18593;51.426;7.030;2023-06-14T10:24:29;100631.44;;;23.52;30.89
32081;BME280;18593;51.426;7.030;2023-06-14T10:26:58;100639.34;;;23.53;30.20
32081;BME280;18593;51.426;7.030;2023-06-14T10:29:27;100630.94;;;23.50;30.81
32081;BME280;18593;51.426;7.030;2023-06-14T10:31:59;100623.81;;;23.54;30.36
32081;BME280;18593;51.426;7.030;2023-06-14T10:34:29;100636.53;;;23.58;31.03
32081;BME280;18593;51.426;7.030;2023-06-14T10:37:04;100624.22;;;23.61;30.51
32081;BME280;18593;51.426;7.030;2023-06-14T10:39:39;100623.69;;;23.64;31.93
32081;BME280;18593;51.426;7.030;2023-06-14T10:42:08;100610.78;;;23.70;32.11
32081;BME280;18593;51.426;7.030;2023-06-14T10:44:43;100614.31;;;23.70;30.48
32081;BME280;18593;51.426;7.030;2023-06-14T10:47:21;100624.50;;;23.64;30.89
32081;BME280;18593;51.426;7.030;2023-06-14T10:49:53;100625.34;;;23.60;31.02
32081;BME280;18593;51.426;7.030;2023-06-14T10:52:26;100626.38;;;23.45;31.32
32081;BME280;18593;51.426;7.030;2023-06-14T10:55:10;100631.00;;;23.45;30.76
32081;BME280;18593;51.426;7.030;2023-06-14T10:57:40;100625.31;;;23.41;31.09
32081;BME280;18593;51.426;7.030;2023-06-14T11:00:10;100617.97;;;23.42;31.47
32081;BME280;18593;51.426;7.030;2023-06-14T11:03:36;100626.59;;;23.49;32.10
32081;BME280;18593;51.426;7.030;2023-06-14T11:06:15;100615.78;;;23.44;31.70
32081;BME280;18593;51.426;7.030;2023-06-14T11:09:30;100637.25;;;23.45;32.16
32081;BME280;18593;51.426;7.030;2023-06-14T11:12:04;100636.75;;;23.43;32.66
32081;BME280;18593;51.426;7.030;2023-06-14T11:14:33;100639.47;;;23.43;32.16
32081;BME280;18593;51.426;7.030;2023-06-14T11:17:01;100637.81;;;23.42;32.21
32081;BME280;18593;51.426;7.030;2023-06-14T11:19:28;100633.00;;;23.39;32.19
32081;BME280;18593;51.426;7.030;2023-06-14T11:21:57;100626.94;;;23.42;32.32
32081;BME280;18593;51.426;7.030;2023-06-14T11:24:25;100621.50;;;23.42;33.12
32081;BME280;18593;51.426;7.030;2023-06-14T11:26:53;100614.66;;;23.45;32.45
32081;BME280;18593;51.426;7.030;2023-06-14T11:29:23;100625.78;;;23.48;32.46
32081;BME280;18593;51.426;7.030;2023-06-14T11:31:51;100625.56;;;23.45;32.63
32081;BME280;18593;51.426;7.030;2023-06-14T11:34:18;100625.31;;;23.41;32.23
32081;BME280;18593;51.426;7.030;2023-06-14T11:36:45;100619.66;;;23.37;32.45
32081;BME280;18593;51.426;7.030;2023-06-14T11:39:14;100612.81;;;23.40;32.47
32081;BME280;18593;51.426;7.030;2023-06-14T11:41:44;100617.47;;;23.39;33.28
32081;BME280;18593;51.426;7.030;2023-06-14T11:44:11;100626.38;;;23.45;33.07
32081;BME280;18593;51.426;7.030;2023-06-14T11:46:39;100611.94;;;23.45;33.14
32081;BME280;18593;51.426;7.030;2023-06-14T11:49:07;100610.53;;;23.47;32.51
32081;BME280;18593;51.426;7.030;2023-06-14T11:51:36;100609.47;;;23.48;32.84
32081;BME280;18593;51.426;7.030;2023-06-14T11:54:05;100617.91;;;23.47;32.33
32081;BME280;18593;51.426;7.030;2023-06-14T11:56:34;100612.25;;;23.43;32.53
32081;BME280;18593;51.426;7.030;2023-06-14T11:59:03;100619.63;;;23.43;32.84
32081;BME280;18593;51.426;7.030;2023-06-14T12:01:31;100621.06;;;23.35;32.67
32081;BME280;18593;51.426;7.030;2023-06-14T12:03:59;100614.22;;;23.37;33.11
32081;BME280;18593;51.426;7.030;2023-06-14T12:06:29;100626.94;;;23.42;32.28
32081;BME280;18593;51.426;7.030;2023-06-14T12:08:58;100616.34;;;23.41;32.83
32081;BME280;18593;51.426;7.030;2023-06-14T12:11:34;100608.41;;;23.44;32.96
32081;BME280;18593;51.426;7.030;2023-06-14T12:14:04;100611.66;;;23.46;33.03
32081;BME280;18593;51.426;7.030;2023-06-14T12:16:32;100603.72;;;23.50;33.11
32081;BME280;18593;51.426;7.030;2023-06-14T12:19:17;100612.38;;;23.52;32.83
32081;BME280;18593;51.426;7.030;2023-06-14T12:21:47;100607.16;;;23.55;33.20
32081;BME280;18593;51.426;7.030;2023-06-14T12:24:17;100601.22;;;23.53;32.91
32081;BME280;18593;51.426;7.030;2023-06-14T12:26:45;100617.25;;;23.55;33.18
32081;BME280;18593;51.426;7.030;2023-06-14T12:29:13;100607.69;;;23.57;33.42
32081;BME280;18593;51.426;7.030;2023-06-14T12:31:40;100602.16;;;23.62;33.00
32081;BME280;18593;51.426;7.030;2023-06-14T12:34:08;100605.66;;;23.68;32.98
32081;BME280;18593;51.426;7.030;2023-06-14T12:36:35;100600.94;;;23.74;33.29
32081;BME280;18593;51.426;7.030;2023-06-14T12:39:07;100605.28;;;23.75;32.41
32081;BME280;18593;51.426;7.030;2023-06-14T12:41:35;100598.72;;;23.76;32.43
32081;BME280;18593;51.426;7.030;2023-06-14T12:44:05;100600.94;;;23.74;32.15
32081;BME280;18593;51.426;7.030;2023-06-14T12:46:33;100601.00;;;23.69;32.28
32081;BME280;18593;51.426;7.030;2023-06-14T12:49:00;100594.22;;;23.66;32.20
32081;BME280;18593;51.426;7.030;2023-06-14T12:51:28;100610.56;;;23.66;32.08
32081;BME280;18593;51.426;7.030;2023-06-14T12:53:55;100610.34;;;23.62;32.29
32081;BME280;18593;51.426;7.030;2023-06-14T12:56:22;100608.69;;;23.61;32.26
32081;BME280;18593;51.426;7.030;2023-06-14T12:58:49;100617.44;;;23.63;32.41
32081;BME280;18593;51.426;7.030;2023-06-14T13:01:18;100619.03;;;23.64;32.24